sensor_id;sensor_type;location;lat;lon;timestamp;P1;durP1;ratioP1;P2;durP2;ratioP2
1479;SDS011;732;51.698;4.886;2024-01-30T00:01:55;27.80;;;19.13;;
1479;SDS011;732;51.698;4.886;2024-01-30T00:04:23;25.33;;;17.80;;
1479;SDS011;732;51.698;4.886;2024-01-30T00:06:52;33.23;;;18.80;;
1479;SDS011;732;51.698;4.886;2024-01-30T00:09:22;27.63;;;18.70;;
1479;SDS011;732;51.698;4.886;2024-01-30T00:11:50;27.70;;;19.20;;
1479;SDS011;732;51.698;4.886;2024-01-30T00:14:19;30.63;;;17.90;;
1479;SDS011;732;51.698;4.886;2024-01-30T00:16:47;30.30;;;18.70;;
1479;SDS011;732;51.698;4.886;2024-01-30T00:19:16;26.90;;;18.50;;
1479;SDS011;732;51.698;4.886;2024-01-30T00:21:44;29.90;;;18.53;;
1479;SDS011;732;51.698;4.886;2024-01-30T00:24:13;29.87;;;19.00;;
1479;SDS011;732;51.698;4.886;2024-01-30T00:26:43;35.83;;;19.43;;
1479;SDS011;732;51.698;4.886;2024-01-30T00:29:12;30.17;;;20.53;;
1479;SDS011;732;51.698;4.886;2024-01-30T00:31:45;27.73;;;18.40;;
1479;SDS011;732;51.698;4.886;2024-01-30T00:34:14;30.67;;;18.80;;
1479;SDS011;732;51.698;4.886;2024-01-30T00:36:43;30.30;;;18.90;;
1479;SDS011;732;51.698;4.886;2024-01-30T00:39:11;25.00;;;17.63;;
1479;SDS011;732;51.698;4.886;2024-01-30T00:41:43;29.93;;;18.83;;
1479;SDS011;732;51.698;4.886;2024-01-30T00:44:11;26.37;;;17.13;;
1479;SDS011;732;51.698;4.886;2024-01-30T00:46:40;23.17;;;15.87;;
1479;SDS011;732;51.698;4.886;2024-01-30T00:49:08;24.03;;;16.20;;
1479;SDS011;732;51.698;4.886;2024-01-30T00:51:38;24.50;;;17.30;;
1479;SDS011;732;51.698;4.886;2024-01-30T00:54:06;27.20;;;16.60;;
1479;SDS011;732;51.698;4.886;2024-01-30T00:56:35;26.60;;;16.87;;
1479;SDS011;732;51.698;4.886;2024-01-30T00:59:05;33.07;;;17.70;;
1479;SDS011;732;51.698;4.886;2024-01-30T01:01:33;28.40;;;18.40;;
1479;SDS011;732;51.698;4.886;2024-01-30T01:04:02;25.30;;;17.73;;
1479;SDS011;732;51.698;4.886;2024-01-30T01:06:30;25.20;;;16.07;;
1479;SDS011;732;51.698;4.886;2024-01-30T01:08:59;23.77;;;16.40;;
1479;SDS011;732;51.698;4.886;2024-01-30T01:11:30;26.70;;;16.80;;
1479;SDS011;732;51.698;4.886;2024-01-30T01:13:59;20.20;;;14.57;;
1479;SDS011;732;51.698;4.886;2024-01-30T01:16:29;22.30;;;15.97;;
1479;SDS011;732;51.698;4.886;2024-01-30T01:18:57;18.60;;;14.87;;
1479;SDS011;732;51.698;4.886;2024-01-30T01:21:27;25.33;;;15.80;;
1479;SDS011;732;51.698;4.886;2024-01-30T01:23:55;23.60;;;16.03;;
1479;SDS011;732;51.698;4.886;2024-01-30T01:26:24;22.77;;;15.47;;
1479;SDS011;732;51.698;4.886;2024-01-30T01:28:52;23.70;;;15.47;;
1479;SDS011;732;51.698;4.886;2024-01-30T01:31:21;24.90;;;15.73;;
1479;SDS011;732;51.698;4.886;2024-01-30T01:33:53;23.40;;;14.50;;
1479;SDS011;732;51.698;4.886;2024-01-30T01:36:21;22.13;;;15.57;;
1479;SDS011;732;51.698;4.886;2024-01-30T01:38:50;22.30;;;14.83;;
1479;SDS011;732;51.698;4.886;2024-01-30T01:41:18;21.47;;;14.93;;
1479;SDS011;732;51.698;4.886;2024-01-30T01:43:47;22.70;;;15.27;;
1479;SDS011;732;51.698;4.886;2024-01-30T01:46:15;25.43;;;15.77;;
1479;SDS011;732;51.698;4.886;2024-01-30T01:48:45;24.90;;;15.87;;
1479;SDS011;732;51.698;4.886;2024-01-30T01:51:15;21.93;;;15.33;;
1479;SDS011;732;51.698;4.886;2024-01-30T01:53:44;24.33;;;15.50;;
1479;SDS011;732;51.698;4.886;2024-01-30T01:56:13;21.37;;;14.53;;
1479;SDS011;732;51.698;4.886;2024-01-30T01:58:42;21.33;;;14.83;;
1479;SDS011;732;51.698;4.886;2024-01-30T02:01:14;23.57;;;15.77;;
1479;SDS011;732;51.698;4.886;2024-01-30T02:03:44;20.97;;;15.17;;
1479;SDS011;732;51.698;4.886;2024-01-30T02:06:13;20.47;;;15.30;;
1479;SDS011;732;51.698;4.886;2024-01-30T02:08:44;26.43;;;16.17;;
1479;SDS011;732;51.698;4.886;2024-01-30T02:11:13;20.97;;;13.23;;
1479;SDS011;732;51.698;4.886;2024-01-30T02:13:43;22.97;;;15.17;;
1479;SDS011;732;51.698;4.886;2024-01-30T02:16:11;23.43;;;14.77;;
1479;SDS011;732;51.698;4.886;2024-01-30T02:18:40;22.63;;;14.00;;
1479;SDS011;732;51.698;4.886;2024-01-30T02:21:13;20.17;;;13.57;;
1479;SDS011;732;51.698;4.886;2024-01-30T02:23:42;18.30;;;14.07;;
1479;SDS011;732;51.698;4.886;2024-01-30T02:26:14;21.00;;;14.03;;
1479;SDS011;732;51.698;4.886;2024-01-30T02:28:42;30.17;;;14.40;;
1479;SDS011;732;51.698;4.886;2024-01-30T02:31:11;20.80;;;13.83;;
1479;SDS011;732;51.698;4.886;2024-01-30T02:33:39;22.33;;;13.30;;
1479;SDS011;732;51.698;4.886;2024-01-30T02:36:08;23.87;;;13.97;;
1479;SDS011;732;51.698;4.886;2024-01-30T02:38:38;26.83;;;14.70;;
1479;SDS011;732;51.698;4.886;2024-01-30T02:41:07;22.50;;;14.60;;
1479;SDS011;732;51.698;4.886;2024-01-30T02:43:35;22.63;;;14.77;;
1479;SDS011;732;51.698;4.886;2024-01-30T02:46:04;25.50;;;16.00;;
1479;SDS011;732;51.698;4.886;2024-01-30T02:48:32;21.40;;;14.83;;
1479;SDS011;732;51.698;4.886;2024-01-30T02:51:01;23.63;;;14.40;;
1479;SDS011;732;51.698;4.886;2024-01-30T02:53:30;19.33;;;13.50;;
1479;SDS011;732;51.698;4.886;2024-01-30T02:55:59;21.23;;;14.40;;
1479;SDS011;732;51.698;4.886;2024-01-30T02:58:32;22.60;;;14.43;;
1479;SDS011;732;51.698;4.886;2024-01-30T03:01:00;22.57;;;14.50;;
1479;SDS011;732;51.698;4.886;2024-01-30T03:03:29;22.77;;;14.10;;
1479;SDS011;732;51.698;4.886;2024-01-30T03:05:57;26.77;;;15.70;;
1479;SDS011;732;51.698;4.886;2024-01-30T03:08:26;22.07;;;14.63;;
1479;SDS011;732;51.698;4.886;2024-01-30T03:10:54;20.53;;;12.97;;
1479;SDS011;732;51.698;4.886;2024-01-30T03:13:24;21.37;;;13.33;;
1479;SDS011;732;51.698;4.886;2024-01-30T03:15:52;19.73;;;13.30;;
1479;SDS011;732;51.698;4.886;2024-01-30T03:18:21;23.13;;;14.03;;
1479;SDS011;732;51.698;4.886;2024-01-30T03:20:49;23.43;;;13.70;;
1479;SDS011;732;51.698;4.886;2024-01-30T03:23:18;21.67;;;13.67;;
1479;SDS011;732;51.698;4.886;2024-01-30T03:25:46;20.83;;;14.23;;
1479;SDS011;732;51.698;4.886;2024-01-30T03:28:15;20.63;;;13.47;;
1479;SDS011;732;51.698;4.886;2024-01-30T03:30:44;19.67;;;12.23;;
1479;SDS011;732;51.698;4.886;2024-01-30T03:33:13;18.53;;;12.60;;
1479;SDS011;732;51.698;4.886;2024-01-30T03:35:41;19.10;;;13.67;;
1479;SDS011;732;51.698;4.886;2024-01-30T03:38:10;24.70;;;14.10;;
1479;SDS011;732;51.698;4.886;2024-01-30T03:40:38;24.20;;;14.47;;
1479;SDS011;732;51.698;4.886;2024-01-30T03:43:07;28.97;;;14.73;;
1479;SDS011;732;51.698;4.886;2024-01-30T03:45:35;17.27;;;12.03;;
1479;SDS011;732;51.698;4.886;2024-01-30T03:48:06;20.93;;;13.67;;
1479;SDS011;732;51.698;4.886;2024-01-30T03:50:35;19.70;;;13.50;;
1479;SDS011;732;51.698;4.886;2024-01-30T03:53:03;21.60;;;13.40;;
1479;SDS011;732;51.698;4.886;2024-01-30T03:55:32;24.80;;;15.10;;
1479;SDS011;732;51.698;4.886;2024-01-30T03:58:00;16.83;;;11.93;;
1479;SDS011;732;51.698;4.886;2024-01-30T04:00:29;18.80;;;12.33;;
1479;SDS011;732;51.698;4.886;2024-01-30T04:02:57;23.30;;;13.00;;
1479;SDS011;732;51.698;4.886;2024-01-30T04:05:27;17.90;;;12.30;;
1479;SDS011;732;51.698;4.886;2024-01-30T04:07:56;19.50;;;13.30;;
1479;SDS011;732;51.698;4.886;2024-01-30T04:10:24;22.70;;;12.87;;
1479;SDS011;732;51.698;4.886;2024-01-30T04:12:53;21.30;;;13.20;;
1479;SDS011;732;51.698;4.886;2024-01-30T04:15:22;24.97;;;13.53;;
1479;SDS011;732;51.698;4.886;2024-01-30T04:17:50;18.83;;;12.30;;
1479;SDS011;732;51.698;4.886;2024-01-30T04:20:19;19.47;;;12.73;;
1479;SDS011;732;51.698;4.886;2024-01-30T04:22:49;18.47;;;12.60;;
1479;SDS011;732;51.698;4.886;2024-01-30T04:25:17;21.10;;;13.60;;
1479;SDS011;732;51.698;4.886;2024-01-30T04:27:46;19.30;;;12.57;;
1479;SDS011;732;51.698;4.886;2024-01-30T04:30:15;19.77;;;12.43;;
1479;SDS011;732;51.698;4.886;2024-01-30T04:32:43;20.27;;;13.17;;
1479;SDS011;732;51.698;4.886;2024-01-30T04:35:12;18.03;;;12.13;;
1479;SDS011;732;51.698;4.886;2024-01-30T04:37:41;20.80;;;13.07;;
1479;SDS011;732;51.698;4.886;2024-01-30T04:40:11;20.67;;;13.40;;
1479;SDS011;732;51.698;4.886;2024-01-30T04:42:40;20.80;;;13.13;;
1479;SDS011;732;51.698;4.886;2024-01-30T04:45:09;21.17;;;13.20;;
1479;SDS011;732;51.698;4.886;2024-01-30T04:47:37;16.50;;;11.83;;
1479;SDS011;732;51.698;4.886;2024-01-30T04:50:07;18.10;;;12.03;;
1479;SDS011;732;51.698;4.886;2024-01-30T04:52:36;21.10;;;12.60;;
1479;SDS011;732;51.698;4.886;2024-01-30T04:55:05;21.83;;;12.90;;
1479;SDS011;732;51.698;4.886;2024-01-30T04:57:36;20.00;;;14.00;;
1479;SDS011;732;51.698;4.886;2024-01-30T05:00:05;22.13;;;12.70;;
1479;SDS011;732;51.698;4.886;2024-01-30T05:02:35;21.80;;;14.23;;
1479;SDS011;732;51.698;4.886;2024-01-30T05:05:03;18.90;;;14.13;;
1479;SDS011;732;51.698;4.886;2024-01-30T05:07:33;21.53;;;14.17;;
1479;SDS011;732;51.698;4.886;2024-01-30T05:10:01;20.63;;;14.50;;
1479;SDS011;732;51.698;4.886;2024-01-30T05:12:32;23.33;;;15.33;;
1479;SDS011;732;51.698;4.886;2024-01-30T05:15:03;23.30;;;15.80;;
1479;SDS011;732;51.698;4.886;2024-01-30T05:17:32;23.33;;;14.87;;
1479;SDS011;732;51.698;4.886;2024-01-30T05:20:01;23.93;;;14.40;;
1479;SDS011;732;51.698;4.886;2024-01-30T05:22:31;26.23;;;13.80;;
1479;SDS011;732;51.698;4.886;2024-01-30T05:24:59;19.90;;;13.87;;
1479;SDS011;732;51.698;4.886;2024-01-30T05:27:28;19.00;;;13.53;;
1479;SDS011;732;51.698;4.886;2024-01-30T05:29:56;17.23;;;12.80;;
1479;SDS011;732;51.698;4.886;2024-01-30T05:32:26;19.40;;;12.60;;
1479;SDS011;732;51.698;4.886;2024-01-30T05:34:55;19.63;;;13.00;;
1479;SDS011;732;51.698;4.886;2024-01-30T05:37:23;19.47;;;12.93;;
1479;SDS011;732;51.698;4.886;2024-01-30T05:39:52;17.57;;;12.00;;
1479;SDS011;732;51.698;4.886;2024-01-30T05:42:20;18.33;;;11.10;;
1479;SDS011;732;51.698;4.886;2024-01-30T05:44:49;19.03;;;12.57;;
1479;SDS011;732;51.698;4.886;2024-01-30T05:47:18;14.53;;;11.20;;
1479;SDS011;732;51.698;4.886;2024-01-30T05:49:48;15.30;;;10.97;;
1479;SDS011;732;51.698;4.886;2024-01-30T05:52:16;19.10;;;11.63;;
1479;SDS011;732;51.698;4.886;2024-01-30T05:54:45;20.30;;;11.37;;
1479;SDS011;732;51.698;4.886;2024-01-30T05:57:14;16.10;;;11.40;;
1479;SDS011;732;51.698;4.886;2024-01-30T05:59:42;16.93;;;10.93;;
1479;SDS011;732;51.698;4.886;2024-01-30T06:02:14;16.93;;;11.00;;
1479;SDS011;732;51.698;4.886;2024-01-30T06:04:42;13.70;;;10.77;;
1479;SDS011;732;51.698;4.886;2024-01-30T06:07:12;14.70;;;11.17;;
1479;SDS011;732;51.698;4.886;2024-01-30T06:09:41;16.67;;;11.70;;
1479;SDS011;732;51.698;4.886;2024-01-30T06:12:10;15.67;;;11.60;;
1479;SDS011;732;51.698;4.886;2024-01-30T06:14:38;18.10;;;10.60;;
1479;SDS011;732;51.698;4.886;2024-01-30T06:17:12;15.90;;;11.17;;
1479;SDS011;732;51.698;4.886;2024-01-30T06:19:41;17.37;;;10.70;;
1479;SDS011;732;51.698;4.886;2024-01-30T06:22:13;18.70;;;11.20;;
1479;SDS011;732;51.698;4.886;2024-01-30T06:24:43;15.13;;;10.30;;
1479;SDS011;732;51.698;4.886;2024-01-30T06:27:14;15.27;;;10.00;;
1479;SDS011;732;51.698;4.886;2024-01-30T06:29:44;15.17;;;10.60;;
1479;SDS011;732;51.698;4.886;2024-01-30T06:32:12;15.67;;;11.20;;
1479;SDS011;732;51.698;4.886;2024-01-30T06:34:41;20.33;;;12.33;;
1479;SDS011;732;51.698;4.886;2024-01-30T06:37:11;16.07;;;10.70;;
1479;SDS011;732;51.698;4.886;2024-01-30T06:39:41;16.67;;;11.43;;
1479;SDS011;732;51.698;4.886;2024-01-30T06:42:10;17.40;;;10.90;;
1479;SDS011;732;51.698;4.886;2024-01-30T06:44:39;14.47;;;10.93;;
1479;SDS011;732;51.698;4.886;2024-01-30T06:47:07;23.10;;;11.10;;
1479;SDS011;732;51.698;4.886;2024-01-30T06:49:36;19.23;;;10.97;;
1479;SDS011;732;51.698;4.886;2024-01-30T06:52:05;16.60;;;11.60;;
1479;SDS011;732;51.698;4.886;2024-01-30T06:54:34;16.17;;;11.57;;
1479;SDS011;732;51.698;4.886;2024-01-30T06:57:04;21.03;;;11.40;;
1479;SDS011;732;51.698;4.886;2024-01-30T06:59:35;16.30;;;11.20;;
1479;SDS011;732;51.698;4.886;2024-01-30T07:02:03;20.97;;;11.10;;
1479;SDS011;732;51.698;4.886;2024-01-30T07:04:34;20.50;;;11.00;;
1479;SDS011;732;51.698;4.886;2024-01-30T07:07:03;15.77;;;11.47;;
1479;SDS011;732;51.698;4.886;2024-01-30T07:09:38;19.47;;;11.20;;
1479;SDS011;732;51.698;4.886;2024-01-30T07:12:09;16.60;;;11.10;;
1479;SDS011;732;51.698;4.886;2024-01-30T07:14:37;16.43;;;11.60;;
1479;SDS011;732;51.698;4.886;2024-01-30T07:17:06;16.13;;;10.97;;
1479;SDS011;732;51.698;4.886;2024-01-30T07:19:35;18.20;;;11.60;;
1479;SDS011;732;51.698;4.886;2024-01-30T07:22:04;22.30;;;11.70;;
1479;SDS011;732;51.698;4.886;2024-01-30T07:24:33;15.90;;;10.73;;
1479;SDS011;732;51.698;4.886;2024-01-30T07:27:01;18.63;;;11.10;;
1479;SDS011;732;51.698;4.886;2024-01-30T07:29:32;17.53;;;11.30;;
1479;SDS011;732;51.698;4.886;2024-01-30T07:32:00;18.63;;;10.93;;
1479;SDS011;732;51.698;4.886;2024-01-30T07:34:29;17.60;;;10.50;;
1479;SDS011;732;51.698;4.886;2024-01-30T07:37:04;15.17;;;10.60;;
1479;SDS011;732;51.698;4.886;2024-01-30T07:39:34;20.57;;;11.17;;
1479;SDS011;732;51.698;4.886;2024-01-30T07:42:03;15.97;;;10.73;;
1479;SDS011;732;51.698;4.886;2024-01-30T07:44:35;18.47;;;10.90;;
1479;SDS011;732;51.698;4.886;2024-01-30T07:47:04;20.30;;;10.50;;
1479;SDS011;732;51.698;4.886;2024-01-30T07:49:34;13.10;;;10.30;;
1479;SDS011;732;51.698;4.886;2024-01-30T07:52:05;16.10;;;11.17;;
1479;SDS011;732;51.698;4.886;2024-01-30T07:54:34;16.10;;;10.97;;
1479;SDS011;732;51.698;4.886;2024-01-30T07:57:17;14.70;;;9.37;;
1479;SDS011;732;51.698;4.886;2024-01-30T07:59:47;20.43;;;9.63;;
1479;SDS011;732;51.698;4.886;2024-01-30T08:02:16;15.23;;;10.23;;
1479;SDS011;732;51.698;4.886;2024-01-30T08:04:44;18.00;;;10.83;;
1479;SDS011;732;51.698;4.886;2024-01-30T08:07:15;17.30;;;10.20;;
1479;SDS011;732;51.698;4.886;2024-01-30T08:09:45;18.73;;;9.63;;
1479;SDS011;732;51.698;4.886;2024-01-30T08:12:13;16.03;;;9.13;;
1479;SDS011;732;51.698;4.886;2024-01-30T08:14:42;14.97;;;9.63;;
1479;SDS011;732;51.698;4.886;2024-01-30T08:17:12;19.83;;;10.00;;
1479;SDS011;732;51.698;4.886;2024-01-30T08:19:40;16.63;;;9.97;;
1479;SDS011;732;51.698;4.886;2024-01-30T08:22:09;16.90;;;9.60;;
1479;SDS011;732;51.698;4.886;2024-01-30T08:24:37;16.33;;;10.80;;
1479;SDS011;732;51.698;4.886;2024-01-30T08:27:06;18.43;;;9.70;;
1479;SDS011;732;51.698;4.886;2024-01-30T08:29:36;17.83;;;10.73;;
1479;SDS011;732;51.698;4.886;2024-01-30T08:32:05;18.13;;;9.70;;
1479;SDS011;732;51.698;4.886;2024-01-30T08:34:35;14.30;;;10.57;;
1479;SDS011;732;51.698;4.886;2024-01-30T08:37:04;16.50;;;10.70;;
1479;SDS011;732;51.698;4.886;2024-01-30T08:39:33;16.73;;;10.53;;
1479;SDS011;732;51.698;4.886;2024-01-30T08:42:01;18.53;;;10.70;;
1479;SDS011;732;51.698;4.886;2024-01-30T08:44:30;14.17;;;9.70;;
1479;SDS011;732;51.698;4.886;2024-01-30T08:46:59;18.33;;;10.53;;
1479;SDS011;732;51.698;4.886;2024-01-30T08:49:27;18.30;;;10.30;;
1479;SDS011;732;51.698;4.886;2024-01-30T08:51:57;17.03;;;9.67;;
1479;SDS011;732;51.698;4.886;2024-01-30T08:54:26;17.87;;;9.80;;
1479;SDS011;732;51.698;4.886;2024-01-30T08:56:55;20.93;;;10.00;;
1479;SDS011;732;51.698;4.886;2024-01-30T08:59:24;17.70;;;10.77;;
1479;SDS011;732;51.698;4.886;2024-01-30T09:01:53;17.07;;;11.10;;
1479;SDS011;732;51.698;4.886;2024-01-30T09:04:37;21.77;;;11.20;;
1479;SDS011;732;51.698;4.886;2024-01-30T09:07:08;14.00;;;9.10;;
1479;SDS011;732;51.698;4.886;2024-01-30T09:09:37;17.43;;;10.07;;
1479;SDS011;732;51.698;4.886;2024-01-30T09:12:07;16.40;;;9.70;;
1479;SDS011;732;51.698;4.886;2024-01-30T09:14:39;20.87;;;10.70;;
1479;SDS011;732;51.698;4.886;2024-01-30T09:17:08;13.40;;;10.00;;
1479;SDS011;732;51.698;4.886;2024-01-30T09:19:37;16.27;;;10.43;;
1479;SDS011;732;51.698;4.886;2024-01-30T09:22:07;14.97;;;9.80;;
1479;SDS011;732;51.698;4.886;2024-01-30T09:24:36;17.03;;;10.27;;
1479;SDS011;732;51.698;4.886;2024-01-30T09:27:04;20.20;;;10.30;;
1479;SDS011;732;51.698;4.886;2024-01-30T09:29:33;19.23;;;10.80;;
1479;SDS011;732;51.698;4.886;2024-01-30T09:32:03;15.87;;;10.57;;
1479;SDS011;732;51.698;4.886;2024-01-30T09:34:33;13.93;;;10.03;;
1479;SDS011;732;51.698;4.886;2024-01-30T09:37:02;18.63;;;10.77;;
1479;SDS011;732;51.698;4.886;2024-01-30T09:39:33;13.97;;;10.53;;
1479;SDS011;732;51.698;4.886;2024-01-30T09:42:02;13.80;;;10.20;;
1479;SDS011;732;51.698;4.886;2024-01-30T09:44:39;21.73;;;11.27;;
1479;SDS011;732;51.698;4.886;2024-01-30T09:47:12;18.03;;;10.30;;
1479;SDS011;732;51.698;4.886;2024-01-30T09:49:41;15.10;;;10.53;;
1479;SDS011;732;51.698;4.886;2024-01-30T09:52:12;14.37;;;10.70;;
1479;SDS011;732;51.698;4.886;2024-01-30T09:54:43;15.83;;;10.43;;
1479;SDS011;732;51.698;4.886;2024-01-30T09:57:12;15.77;;;10.43;;
1479;SDS011;732;51.698;4.886;2024-01-30T09:59:41;17.47;;;10.80;;
1479;SDS011;732;51.698;4.886;2024-01-30T10:02:10;17.57;;;10.20;;
1479;SDS011;732;51.698;4.886;2024-01-30T10:04:39;16.70;;;11.20;;
1479;SDS011;732;51.698;4.886;2024-01-30T10:07:08;14.80;;;9.90;;
1479;SDS011;732;51.698;4.886;2024-01-30T10:09:39;18.17;;;11.70;;
1479;SDS011;732;51.698;4.886;2024-01-30T10:12:09;19.90;;;10.70;;
1479;SDS011;732;51.698;4.886;2024-01-30T10:14:38;17.53;;;11.27;;
1479;SDS011;732;51.698;4.886;2024-01-30T10:17:07;18.97;;;10.50;;
1479;SDS011;732;51.698;4.886;2024-01-30T10:19:47;18.83;;;11.37;;
1479;SDS011;732;51.698;4.886;2024-01-30T10:22:16;15.20;;;10.90;;
1479;SDS011;732;51.698;4.886;2024-01-30T10:24:45;15.70;;;10.90;;
1479;SDS011;732;51.698;4.886;2024-01-30T10:27:15;20.27;;;11.70;;
1479;SDS011;732;51.698;4.886;2024-01-30T10:29:48;18.60;;;11.40;;
1479;SDS011;732;51.698;4.886;2024-01-30T10:32:17;13.93;;;10.30;;
1479;SDS011;732;51.698;4.886;2024-01-30T10:34:45;18.07;;;10.73;;
1479;SDS011;732;51.698;4.886;2024-01-30T10:37:15;16.00;;;10.67;;
1479;SDS011;732;51.698;4.886;2024-01-30T10:39:44;15.37;;;10.40;;
1479;SDS011;732;51.698;4.886;2024-01-30T10:42:13;23.27;;;10.73;;
1479;SDS011;732;51.698;4.886;2024-01-30T10:44:48;14.30;;;9.40;;
1479;SDS011;732;51.698;4.886;2024-01-30T10:47:28;11.33;;;9.07;;
1479;SDS011;732;51.698;4.886;2024-01-30T10:49:58;10.13;;;9.10;;
1479;SDS011;732;51.698;4.886;2024-01-30T10:52:28;15.77;;;8.50;;
1479;SDS011;732;51.698;4.886;2024-01-30T10:54:59;15.47;;;7.60;;
1479;SDS011;732;51.698;4.886;2024-01-30T10:57:29;11.17;;;7.40;;
1479;SDS011;732;51.698;4.886;2024-01-30T11:00:01;11.90;;;7.60;;
1479;SDS011;732;51.698;4.886;2024-01-30T11:02:36;11.47;;;6.43;;
1479;SDS011;732;51.698;4.886;2024-01-30T11:05:07;10.87;;;7.47;;
1479;SDS011;732;51.698;4.886;2024-01-30T11:07:38;9.53;;;6.70;;
1479;SDS011;732;51.698;4.886;2024-01-30T11:10:08;16.13;;;7.10;;
1479;SDS011;732;51.698;4.886;2024-01-30T11:12:41;13.23;;;6.87;;
1479;SDS011;732;51.698;4.886;2024-01-30T11:15:12;13.43;;;6.90;;
1479;SDS011;732;51.698;4.886;2024-01-30T11:17:42;8.03;;;6.10;;
1479;SDS011;732;51.698;4.886;2024-01-30T11:20:14;12.53;;;6.50;;
1479;SDS011;732;51.698;4.886;2024-01-30T11:22:46;12.23;;;5.23;;
1479;SDS011;732;51.698;4.886;2024-01-30T11:25:16;6.67;;;4.30;;
1479;SDS011;732;51.698;4.886;2024-01-30T11:27:49;12.17;;;4.10;;
1479;SDS011;732;51.698;4.886;2024-01-30T11:30:22;10.30;;;3.57;;
1479;SDS011;732;51.698;4.886;2024-01-30T11:32:58;9.17;;;3.17;;
1479;SDS011;732;51.698;4.886;2024-01-30T11:35:33;6.07;;;2.10;;
1479;SDS011;732;51.698;4.886;2024-01-30T11:38:03;8.63;;;2.17;;
1479;SDS011;732;51.698;4.886;2024-01-30T11:40:33;6.60;;;2.10;;
1479;SDS011;732;51.698;4.886;2024-01-30T11:43:05;6.43;;;2.23;;
1479;SDS011;732;51.698;4.886;2024-01-30T11:45:35;5.43;;;1.70;;
1479;SDS011;732;51.698;4.886;2024-01-30T11:48:06;1.90;;;1.30;;
1479;SDS011;732;51.698;4.886;2024-01-30T11:50:37;4.10;;;1.70;;
1479;SDS011;732;51.698;4.886;2024-01-30T11:53:07;10.30;;;1.27;;
1479;SDS011;732;51.698;4.886;2024-01-30T11:55:36;3.87;;;1.40;;
1479;SDS011;732;51.698;4.886;2024-01-30T11:58:07;3.20;;;1.13;;
1479;SDS011;732;51.698;4.886;2024-01-30T12:00:35;4.10;;;1.60;;
1479;SDS011;732;51.698;4.886;2024-01-30T12:03:04;2.33;;;1.20;;
1479;SDS011;732;51.698;4.886;2024-01-30T12:05:33;3.10;;;1.30;;
1479;SDS011;732;51.698;4.886;2024-01-30T12:08:03;2.07;;;1.20;;
1479;SDS011;732;51.698;4.886;2024-01-30T12:10:34;5.93;;;1.27;;
1479;SDS011;732;51.698;4.886;2024-01-30T12:13:03;4.03;;;1.23;;
1479;SDS011;732;51.698;4.886;2024-01-30T12:15:33;3.70;;;1.10;;
1479;SDS011;732;51.698;4.886;2024-01-30T12:18:05;2.10;;;1.10;;
1479;SDS011;732;51.698;4.886;2024-01-30T12:20:34;3.00;;;1.50;;
1479;SDS011;732;51.698;4.886;2024-01-30T12:23:03;2.60;;;1.10;;
1479;SDS011;732;51.698;4.886;2024-01-30T12:25:32;4.30;;;1.20;;
1479;SDS011;732;51.698;4.886;2024-01-30T12:28:01;3.33;;;1.37;;
1479;SDS011;732;51.698;4.886;2024-01-30T12:30:29;3.63;;;1.00;;
1479;SDS011;732;51.698;4.886;2024-01-30T12:32:59;3.10;;;1.30;;
1479;SDS011;732;51.698;4.886;2024-01-30T12:35:31;4.30;;;1.60;;
1479;SDS011;732;51.698;4.886;2024-01-30T12:38:00;1.53;;;1.20;;
1479;SDS011;732;51.698;4.886;2024-01-30T12:40:29;7.90;;;2.17;;
1479;SDS011;732;51.698;4.886;2024-01-30T12:43:02;9.87;;;3.20;;
1479;SDS011;732;51.698;4.886;2024-01-30T12:45:31;12.67;;;4.33;;
1479;SDS011;732;51.698;4.886;2024-01-30T12:48:01;13.00;;;4.90;;
1479;SDS011;732;51.698;4.886;2024-01-30T12:50:32;11.27;;;4.73;;
1479;SDS011;732;51.698;4.886;2024-01-30T12:53:00;12.00;;;5.87;;
1479;SDS011;732;51.698;4.886;2024-01-30T12:55:29;15.40;;;5.37;;
1479;SDS011;732;51.698;4.886;2024-01-30T12:57:58;10.70;;;4.80;;
1479;SDS011;732;51.698;4.886;2024-01-30T13:00:26;13.70;;;4.60;;
1479;SDS011;732;51.698;4.886;2024-01-30T13:02:55;11.80;;;5.40;;
1479;SDS011;732;51.698;4.886;2024-01-30T13:05:25;19.57;;;5.30;;
1479;SDS011;732;51.698;4.886;2024-01-30T13:07:54;14.27;;;4.60;;
1479;SDS011;732;51.698;4.886;2024-01-30T13:10:23;9.67;;;4.00;;
1479;SDS011;732;51.698;4.886;2024-01-30T13:12:52;16.13;;;4.40;;
1479;SDS011;732;51.698;4.886;2024-01-30T13:15:20;9.70;;;4.03;;
1479;SDS011;732;51.698;4.886;2024-01-30T13:17:49;11.83;;;4.67;;
1479;SDS011;732;51.698;4.886;2024-01-30T13:20:20;10.50;;;4.03;;
1479;SDS011;732;51.698;4.886;2024-01-30T13:22:50;14.57;;;5.07;;
1479;SDS011;732;51.698;4.886;2024-01-30T13:25:19;9.70;;;4.63;;
1479;SDS011;732;51.698;4.886;2024-01-30T13:27:48;9.60;;;4.57;;
1479;SDS011;732;51.698;4.886;2024-01-30T13:30:16;12.27;;;4.70;;
1479;SDS011;732;51.698;4.886;2024-01-30T13:32:45;17.20;;;4.90;;
1479;SDS011;732;51.698;4.886;2024-01-30T13:35:14;12.07;;;4.00;;
1479;SDS011;732;51.698;4.886;2024-01-30T13:37:43;11.57;;;4.10;;
1479;SDS011;732;51.698;4.886;2024-01-30T13:40:15;8.83;;;3.17;;
1479;SDS011;732;51.698;4.886;2024-01-30T13:42:44;8.30;;;3.80;;
1479;SDS011;732;51.698;4.886;2024-01-30T13:45:13;6.77;;;3.00;;
1479;SDS011;732;51.698;4.886;2024-01-30T13:47:42;7.67;;;3.10;;
1479;SDS011;732;51.698;4.886;2024-01-30T13:50:10;7.53;;;2.40;;
1479;SDS011;732;51.698;4.886;2024-01-30T13:52:41;6.90;;;2.23;;
1479;SDS011;732;51.698;4.886;2024-01-30T13:55:12;8.60;;;2.67;;
1479;SDS011;732;51.698;4.886;2024-01-30T13:57:42;7.93;;;2.53;;
1479;SDS011;732;51.698;4.886;2024-01-30T14:00:14;12.03;;;2.70;;
1479;SDS011;732;51.698;4.886;2024-01-30T14:02:43;6.00;;;2.87;;
1479;SDS011;732;51.698;4.886;2024-01-30T14:05:11;5.93;;;2.70;;
1479;SDS011;732;51.698;4.886;2024-01-30T14:07:42;5.30;;;2.17;;
1479;SDS011;732;51.698;4.886;2024-01-30T14:10:11;3.70;;;2.47;;
1479;SDS011;732;51.698;4.886;2024-01-30T14:12:43;4.30;;;1.93;;
1479;SDS011;732;51.698;4.886;2024-01-30T14:15:12;4.00;;;2.20;;
1479;SDS011;732;51.698;4.886;2024-01-30T14:17:54;5.03;;;2.30;;
1479;SDS011;732;51.698;4.886;2024-01-30T14:20:24;5.80;;;2.50;;
1479;SDS011;732;51.698;4.886;2024-01-30T14:22:53;4.93;;;2.63;;
1479;SDS011;732;51.698;4.886;2024-01-30T14:25:23;6.60;;;2.73;;
1479;SDS011;732;51.698;4.886;2024-01-30T14:27:53;3.80;;;2.77;;
1479;SDS011;732;51.698;4.886;2024-01-30T14:30:22;7.30;;;2.90;;
1479;SDS011;732;51.698;4.886;2024-01-30T14:32:50;107.07;;;14.70;;
1479;SDS011;732;51.698;4.886;2024-01-30T14:35:19;6.60;;;3.70;;
1479;SDS011;732;51.698;4.886;2024-01-30T14:37:48;10.80;;;4.60;;
1479;SDS011;732;51.698;4.886;2024-01-30T14:40:17;7.93;;;4.70;;
1479;SDS011;732;51.698;4.886;2024-01-30T14:42:46;9.87;;;4.83;;
1479;SDS011;732;51.698;4.886;2024-01-30T14:45:18;9.57;;;6.03;;
1479;SDS011;732;51.698;4.886;2024-01-30T14:47:48;12.60;;;6.77;;
1479;SDS011;732;51.698;4.886;2024-01-30T14:50:17;10.53;;;6.93;;
1479;SDS011;732;51.698;4.886;2024-01-30T14:52:46;13.40;;;7.30;;
1479;SDS011;732;51.698;4.886;2024-01-30T14:55:14;10.60;;;6.80;;
1479;SDS011;732;51.698;4.886;2024-01-30T14:57:43;11.30;;;7.60;;
1479;SDS011;732;51.698;4.886;2024-01-30T15:00:13;10.47;;;7.70;;
1479;SDS011;732;51.698;4.886;2024-01-30T15:02:44;12.00;;;8.40;;
1479;SDS011;732;51.698;4.886;2024-01-30T15:05:14;19.40;;;8.53;;
1479;SDS011;732;51.698;4.886;2024-01-30T15:07:43;15.20;;;7.87;;
1479;SDS011;732;51.698;4.886;2024-01-30T15:10:12;13.60;;;9.17;;
1479;SDS011;732;51.698;4.886;2024-01-30T15:12:41;14.20;;;8.13;;
1479;SDS011;732;51.698;4.886;2024-01-30T15:15:09;13.50;;;8.40;;
1479;SDS011;732;51.698;4.886;2024-01-30T15:17:38;12.63;;;8.10;;
1479;SDS011;732;51.698;4.886;2024-01-30T15:20:09;18.30;;;9.43;;
1479;SDS011;732;51.698;4.886;2024-01-30T15:22:38;18.13;;;9.00;;